Time;durP1;ratioP1;P1;durP2;ratioP2;P2;SDS_P1;SDS_P2;PMS_P1;PMS_P2;Temp;Humidity;BMP_temperature;BMP_pressure;BME280_temperature;BME280_humidity;BME280_pressure;Samples;Min_cycle;Max_cycle;Signal;HPM_P1;HPM_P2
2022/08/07 00:02:31;;;;;;;4.00;3.13;;;;;13.60;102072.00;;;;5029869;28;20218;-73
2022/08/07 00:05:28;;;;;;;3.37;3.03;;;;;13.40;102062.00;;;;5023881;28;20229;-73
2022/08/07 00:08:15;;;;;;;5.43;3.23;;;;;13.50;102066.00;;;;5028752;28;20213;-71
2022/08/07 00:11:01;;;;;;;4.27;3.13;;;;;13.50;102068.00;;;;5029338;28;20333;-75
2022/08/07 00:13:51;;;;;;;4.97;3.17;;;;;13.50;102067.00;;;;5028996;28;20206;-71
2022/08/07 00:16:40;;;;;;;5.47;3.20;;;;;13.50;102055.00;;;;5025694;28;20221;-72
2022/08/07 00:19:28;;;;;;;5.10;3.30;;;;;13.60;102060.00;;;;5028709;28;20221;-72
2022/08/07 00:22:35;;;;;;;3.67;2.97;;;;;13.40;102054.00;;;;5029834;28;20233;-71
2022/08/07 00:25:23;;;;;;;4.03;3.00;;;;;13.40;102063.00;;;;5028970;28;20356;-72
2022/08/07 00:28:11;;;;;;;3.70;2.57;;;;;13.30;102046.00;;;;5029750;28;20559;-73
2022/08/07 00:31:02;;;;;;;3.77;2.90;;;;;13.30;102060.00;;;;5029126;28;20229;-73
2022/08/07 00:33:51;;;;;;;3.47;2.83;;;;;13.30;102054.00;;;;5028626;28;20209;-73
2022/08/07 00:36:37;;;;;;;4.13;3.30;;;;;13.40;102045.00;;;;5029484;28;20221;-72
2022/08/07 00:39:30;;;;;;;4.17;3.00;;;;;13.20;102049.00;;;;5022602;28;20209;-74
2022/08/07 00:42:16;;;;;;;4.53;2.80;;;;;13.10;102048.00;;;;5028805;28;20217;-73
2022/08/07 00:45:11;;;;;;;4.77;2.90;;;;;13.00;102046.00;;;;5027922;28;20238;-73
2022/08/07 00:48:01;;;;;;;3.43;2.73;;;;;13.10;102046.00;;;;5026572;28;20332;-73
2022/08/07 00:50:55;;;;;;;3.67;2.90;;;;;13.00;102038.00;;;;5027540;28;20232;-72
2022/08/07 00:53:42;;;;;;;3.80;2.70;;;;;13.00;102041.00;;;;5027813;28;20201;-73
2022/08/07 00:56:41;;;;;;;4.50;3.03;;;;;13.10;102032.00;;;;5027867;28;20760;-73
2022/08/07 00:59:30;;;;;;;3.80;2.80;;;;;12.90;102032.00;;;;5027386;28;20216;-73
2022/08/07 01:02:22;;;;;;;4.50;3.10;;;;;13.10;102022.00;;;;5029191;28;20284;-73
2022/08/07 01:05:15;;;;;;;3.00;2.70;;;;;13.00;102029.00;;;;5028412;28;20229;-73
2022/08/07 01:08:05;;;;;;;4.10;3.07;;;;;12.90;102036.00;;;;5027271;28;20252;-73
2022/08/07 01:10:55;;;;;;;3.63;3.10;;;;;12.90;102028.00;;;;5027901;28;20304;-72
2022/08/07 01:13:43;;;;;;;4.03;3.10;;;;;12.80;102026.00;;;;5027975;28;20676;-73
2022/08/07 01:16:41;;;;;;;5.43;3.20;;;;;12.70;102022.00;;;;5023698;28;20225;-69
2022/08/07 01:19:30;;;;;;;3.10;2.80;;;;;12.70;102029.00;;;;5027270;28;20228;-75
2022/08/07 01:22:20;;;;;;;3.80;3.00;;;;;12.80;102020.00;;;;5028072;28;20210;-72
2022/08/07 01:25:15;;;;;;;5.07;2.97;;;;;12.80;102033.00;;;;5027701;28;20237;-71
2022/08/07 01:28:22;;;;;;;3.30;2.90;;;;;12.80;102021.00;;;;5020945;28;20212;-72
2022/08/07 01:31:09;;;;;;;3.77;3.00;;;;;12.60;102020.00;;;;5027405;28;20352;-73
2022/08/07 01:34:02;;;;;;;6.27;3.00;;;;;12.60;102015.00;;;;5026763;28;20213;-72
2022/08/07 01:36:49;;;;;;;4.60;3.10;;;;;12.70;102015.00;;;;5029135;28;20726;-73
2022/08/07 01:39:45;;;;;;;3.60;3.13;;;;;12.60;102021.00;;;;5024478;28;20209;-72
2022/08/07 01:42:34;;;;;;;4.50;3.07;;;;;12.60;102009.00;;;;5028367;28;20583;-72
2022/08/07 01:45:26;;;;;;;4.20;3.03;;;;;12.70;102011.00;;;;5024789;28;20233;-72
2022/08/07 01:48:26;;;;;;;4.70;3.33;;;;;12.50;102006.00;;;;5028615;28;20705;-72
2022/08/07 01:51:19;;;;;;;3.70;3.03;;;;;12.40;102006.00;;;;5027851;28;20280;-74
2022/08/07 01:54:28;;;;;;;3.53;3.03;;;;;12.50;102016.00;;;;5023372;28;21197;-74
2022/08/07 01:57:27;;;;;;;4.67;3.03;;;;;12.40;102011.00;;;;5021794;28;21033;-72
2022/08/07 02:00:16;;;;;;;4.60;3.33;;;;;12.40;102008.00;;;;5024867;28;20229;-73
2022/08/07 02:03:17;;;;;;;3.70;3.03;;;;;12.40;102005.00;;;;5030430;28;20214;-72
2022/08/07 02:06:27;;;;;;;4.83;3.07;;;;;12.40;102008.00;;;;5024076;28;20315;-73
2022/08/07 02:09:20;;;;;;;3.33;2.97;;;;;12.40;101993.00;;;;5027549;28;20348;-72
2022/08/07 02:12:31;;;;;;;3.77;2.93;;;;;12.40;102004.00;;;;5025272;28;20221;-73
2022/08/07 02:15:22;;;;;;;4.60;3.43;;;;;12.30;101994.00;;;;5030792;28;20233;-71
2022/08/07 02:18:13;;;;;;;3.23;2.93;;;;;12.30;101993.00;;;;5025740;28;20217;-74
2022/08/07 02:21:05;;;;;;;3.77;3.00;;;;;12.30;101998.00;;;;5022575;28;20217;-73
2022/08/07 02:23:52;;;;;;;5.60;3.17;;;;;12.30;102000.00;;;;5023451;28;20291;-71
2022/08/07 02:26:40;;;;;;;4.17;2.90;;;;;12.30;101983.00;;;;5027429;28;20694;-72
2022/08/07 02:29:31;;;;;;;4.10;3.30;;;;;12.20;101988.00;;;;5024303;28;20209;-73
2022/08/07 02:32:20;;;;;;;5.83;3.27;;;;;12.20;101993.00;;;;5027352;28;20221;-72
2022/08/07 02:35:17;;;;;;;4.47;3.47;;;;;12.20;101987.00;;;;5025660;28;20228;-73
2022/08/07 02:38:31;;;;;;;5.93;3.40;;;;;12.20;101994.00;;;;5023046;28;20206;-72
2022/08/07 02:41:18;;;;;;;3.50;3.20;;;;;12.20;101986.00;;;;5031696;28;20789;-72
2022/08/07 02:44:07;;;;;;;4.33;3.33;;;;;12.20;101987.00;;;;5028583;28;20336;-72
2022/08/07 02:46:58;;;;;;;4.93;3.47;;;;;12.20;101993.00;;;;5031434;28;20563;-73
2022/08/07 02:49:46;;;;;;;4.03;3.60;;;;;12.20;101981.00;;;;5028974;28;20231;-72
2022/08/07 02:52:53;;;;;;;3.67;3.20;;;;;12.20;101985.00;;;;5028313;28;20665;-74
2022/08/07 02:55:49;;;;;;;4.00;3.47;;;;;12.10;101988.00;;;;5026409;28;20272;-71
2022/08/07 02:58:51;;;;;;;5.13;3.40;;;;;12.10;101983.00;;;;5027081;28;20205;-72
2022/08/07 03:01:41;;;;;;;5.47;4.20;;;;;12.00;101982.00;;;;5030913;28;20706;-72
2022/08/07 03:04:35;;;;;;;4.40;3.50;;;;;12.10;101978.00;;;;5030877;28;20226;-72
2022/08/07 03:07:21;;;;;;;4.13;3.10;;;;;12.00;101984.00;;;;5030104;28;20292;-72
2022/08/07 03:10:28;;;;;;;4.73;3.20;;;;;11.90;101981.00;;;;5023212;28;20228;-73
2022/08/07 03:13:18;;;;;;;4.37;3.37;;;;;11.90;101980.00;;;;5029835;28;20214;-71
2022/08/07 03:16:05;;;;;;;4.50;3.60;;;;;11.90;101982.00;;;;5029261;28;20245;-71
2022/08/07 03:18:52;;;;;;;4.97;3.40;;;;;12.00;101985.00;;;;5030772;28;20207;-72
2022/08/07 03:21:41;;;;;;;3.73;3.10;;;;;11.90;101991.00;;;;5024807;28;20247;-72
2022/08/07 03:24:36;;;;;;;5.33;3.60;;;;;11.90;101988.00;;;;5030078;28;20237;-72
2022/08/07 03:27:24;;;;;;;5.33;3.83;;;;;11.80;101991.00;;;;5029526;28;20218;-71
2022/08/07 03:30:31;;;;;;;5.00;3.90;;;;;11.90;101995.00;;;;5026680;28;20213;-71
2022/08/07 03:33:20;;;;;;;5.13;3.40;;;;;11.90;101986.00;;;;5029720;28;20225;-73
2022/08/07 03:36:08;;;;;;;5.23;3.60;;;;;11.90;101982.00;;;;5029002;28;20288;-71
2022/08/07 03:39:00;;;;;;;4.33;3.93;;;;;11.80;101977.00;;;;5031152;28;20221;-75
2022/08/07 03:41:51;;;;;;;5.47;3.73;;;;;11.90;101985.00;;;;5026557;28;20217;-72
2022/08/07 03:44:39;;;;;;;5.83;3.57;;;;;11.80;101980.00;;;;5027851;28;20224;-72
2022/08/07 03:47:26;;;;;;;4.57;3.53;;;;;11.70;101976.00;;;;5030025;28;20269;-72
2022/08/07 03:50:16;;;;;;;4.80;4.23;;;;;11.80;101972.00;;;;5028581;28;20214;-72
2022/08/07 03:53:08;;;;;;;3.93;3.50;;;;;11.80;101980.00;;;;5029671;28;20286;-74
2022/08/07 03:55:57;;;;;;;3.67;3.13;;;;;11.80;101981.00;;;;5029635;28;20231;-73
2022/08/07 03:58:50;;;;;;;4.33;3.73;;;;;11.80;101985.00;;;;5030366;28;20213;-74
2022/08/07 04:01:56;;;;;;;6.20;3.73;;;;;11.80;101982.00;;;;5025997;28;20216;-71
2022/08/07 04:04:42;;;;;;;5.40;4.20;;;;;11.80;101986.00;;;;5029139;28;20233;-73
2022/08/07 04:07:30;;;;;;;5.90;3.90;;;;;11.80;101987.00;;;;5026645;28;20335;-72
2022/08/07 04:10:28;;;;;;;5.00;3.90;;;;;11.80;101990.00;;;;5031107;28;20411;-72
2022/08/07 04:13:17;;;;;;;4.30;3.90;;;;;11.90;101981.00;;;;5028378;28;20227;-72
2022/08/07 04:16:05;;;;;;;4.80;3.80;;;;;11.80;101981.00;;;;5027505;28;20240;-72
2022/08/07 04:18:56;;;;;;;6.50;3.80;;;;;11.80;101974.00;;;;5029567;28;20220;-72
2022/08/07 04:21:49;;;;;;;5.03;3.90;;;;;11.70;101985.00;;;;5029762;28;20221;-73
2022/08/07 04:24:56;;;;;;;4.47;3.40;;;;;11.70;101983.00;;;;5025050;28;20871;-74
2022/08/07 04:27:43;;;;;;;7.80;3.50;;;;;11.70;101979.00;;;;5029738;28;20205;-73
2022/08/07 04:30:33;;;;;;;4.83;3.70;;;;;11.70;101984.00;;;;5029545;28;20245;-72
2022/08/07 04:33:29;;;;;;;5.57;3.83;;;;;11.70;101994.00;;;;5026128;28;20718;-73
2022/08/07 04:36:19;;;;;;;4.63;3.73;;;;;11.80;101977.00;;;;5028782;28;20231;-72
2022/08/07 04:39:11;;;;;;;4.70;3.40;;;;;11.80;101981.00;;;;5027111;28;20339;-72
2022/08/07 04:41:57;;;;;;;5.00;3.73;;;;;11.80;101985.00;;;;5025100;28;20243;-72
2022/08/07 04:44:44;;;;;;;7.70;3.73;;;;;11.90;101982.00;;;;5026227;28;20350;-72
2022/08/07 04:47:59;;;;;;;4.90;4.07;;;;;12.00;101978.00;;;;5026513;28;20276;-70
2022/08/07 04:51:02;;;;;;;6.00;4.17;;;;;12.00;101981.00;;;;5027726;28;20221;-73
2022/08/07 04:53:57;;;;;;;5.50;4.10;;;;;12.10;101988.00;;;;5026636;28;20201;-73
2022/08/07 04:56:59;;;;;;;5.00;3.87;;;;;12.20;101991.00;;;;5027394;28;20217;-71
2022/08/07 05:00:08;;;;;;;4.57;3.80;;;;;12.10;101990.00;;;;5027095;28;20213;-74
2022/08/07 05:03:19;;;;;;;4.60;3.43;;;;;12.20;101994.00;;;;5025309;28;20265;-73
2022/08/07 05:06:35;;;;;;;6.07;3.83;;;;;12.30;101992.00;;;;5027743;28;20229;-72
2022/08/07 05:09:37;;;;;;;5.67;3.90;;;;;12.30;101999.00;;;;5028552;28;20535;-73
2022/08/07 05:12:38;;;;;;;4.60;3.80;;;;;12.40;101994.00;;;;5026169;28;20947;-74
2022/08/07 05:15:40;;;;;;;6.93;3.80;;;;;12.40;101988.00;;;;5024312;28;20604;-72
2022/08/07 05:18:30;;;;;;;6.30;4.60;;;;;12.50;102005.00;;;;5028700;28;20393;-71
2022/08/07 05:21:20;;;;;;;7.23;5.17;;;;;12.50;102006.00;;;;5028383;28;20217;-72
2022/08/07 05:24:29;;;;;;;6.10;4.60;;;;;12.60;101999.00;;;;5027289;28;20589;-71
2022/08/07 05:27:26;;;;;;;6.00;4.73;;;;;12.70;101999.00;;;;5030444;28;20209;-72
2022/08/07 05:30:34;;;;;;;11.67;5.30;;;;;12.90;101999.00;;;;5025857;28;20213;-71
2022/08/07 05:33:29;;;;;;;7.40;6.10;;;;;13.10;102000.00;;;;5026926;28;20241;-72
2022/08/07 05:36:16;;;;;;;8.50;6.37;;;;;13.30;102000.00;;;;5025978;28;20229;-73
2022/08/07 05:39:09;;;;;;;10.00;6.10;;;;;13.40;102014.00;;;;5029461;28;20345;-72
2022/08/07 05:42:16;;;;;;;7.00;5.70;;;;;13.40;102014.00;;;;5026348;28;20829;-72
2022/08/07 05:45:24;;;;;;;10.70;6.30;;;;;13.60;102012.00;;;;5026930;28;20355;-73
2022/08/07 05:48:32;;;;;;;8.00;6.27;;;;;13.70;102011.00;;;;5027295;28;20213;-72
2022/08/07 05:51:21;;;;;;;12.23;8.13;;;;;13.70;102011.00;;;;5026905;28;20761;-72
2022/08/07 05:54:08;;;;;;;9.70;6.57;;;;;13.80;102016.00;;;;5023579;28;20213;-74
2022/08/07 05:57:16;;;;;;;12.27;6.77;;;;;13.80;102014.00;;;;5022037;28;20217;-72
2022/08/07 06:00:07;;;;;;;8.67;6.20;;;;;14.00;102019.00;;;;5026074;28;20291;-71
2022/08/07 06:03:05;;;;;;;8.03;6.17;;;;;14.00;102022.00;;;;5024085;28;20273;-73
2022/08/07 06:05:54;;;;;;;8.70;5.93;;;;;14.10;102020.00;;;;5025614;28;20245;-72
2022/08/07 06:08:42;;;;;;;7.70;6.30;;;;;14.20;102021.00;;;;5022502;28;20233;-71
2022/08/07 06:11:32;;;;;;;7.60;5.83;;;;;14.20;102030.00;;;;5027167;28;20213;-71
2022/08/07 06:14:19;;;;;;;8.10;6.47;;;;;14.40;102025.00;;;;5026516;28;20225;-72
2022/08/07 06:17:08;;;;;;;8.80;6.43;;;;;14.40;102026.00;;;;5024784;28;20213;-71
2022/08/07 06:19:59;;;;;;;7.83;5.83;;;;;14.50;102025.00;;;;5026399;28;20285;-71
2022/08/07 06:22:52;;;;;;;9.17;6.00;;;;;14.70;102029.00;;;;5025327;28;20229;-71
2022/08/07 06:26:00;;;;;;;10.07;5.77;;;;;14.80;102031.00;;;;5026311;28;20229;-72
2022/08/07 06:28:48;;;;;;;7.90;6.13;;;;;14.90;102027.00;;;;5026466;28;20346;-71
2022/08/07 06:31:38;;;;;;;9.30;6.60;;;;;14.90;102028.00;;;;5022842;28;20205;-71
2022/08/07 06:34:35;;;;;;;8.97;5.90;;;;;15.00;102028.00;;;;5024271;28;20221;-73
2022/08/07 06:37:26;;;;;;;6.73;5.63;;;;;15.10;102028.00;;;;5027177;28;20771;-73
2022/08/07 06:40:37;;;;;;;7.23;5.70;;;;;15.10;102028.00;;;;5025685;28;20221;-73
2022/08/07 06:43:34;;;;;;;7.70;5.83;;;;;15.10;102021.00;;;;5026920;28;22010;-75
2022/08/07 06:46:25;;;;;;;8.33;5.90;;;;;15.20;102015.00;;;;5025298;28;20238;-74
2022/08/07 06:49:20;;;;;;;8.57;5.83;;;;;15.30;102022.00;;;;5026329;28;20213;-73
2022/08/07 06:52:08;;;;;;;9.40;5.30;;;;;15.40;102018.00;;;;5024929;28;20216;-73
2022/08/07 06:54:56;;;;;;;7.37;5.17;;;;;15.50;102010.00;;;;5025285;28;20375;-72
2022/08/07 06:58:07;;;;;;;7.07;5.50;;;;;15.60;102012.00;;;;5024481;28;20807;-71
2022/08/07 07:00:57;;;;;;;6.57;5.23;;;;;15.70;102014.00;;;;5024712;28;20342;-71
2022/08/07 07:03:43;;;;;;;5.60;4.50;;;;;15.80;102013.00;;;;5027333;28;20215;-72
2022/08/07 07:06:44;;;;;;;7.60;4.90;;;;;15.80;102008.00;;;;5028222;28;20205;-73
2022/08/07 07:09:47;;;;;;;9.17;4.63;;;;;15.90;102008.00;;;;5027615;28;20213;-74
2022/08/07 07:12:38;;;;;;;6.83;5.00;;;;;16.10;102007.00;;;;5027144;28;20231;-72
2022/08/07 07:15:41;;;;;;;5.73;3.93;;;;;16.30;102010.00;;;;5025462;28;20234;-72
2022/08/07 07:18:31;;;;;;;6.17;3.93;;;;;16.30;102007.00;;;;5026845;28;20632;-72
2022/08/07 07:21:38;;;;;;;4.23;3.70;;;;;16.40;102000.00;;;;5025769;28;20680;-72
2022/08/07 07:24:45;;;;;;;5.77;3.80;;;;;16.60;102006.00;;;;5029941;28;20304;-72
2022/08/07 07:27:53;;;;;;;5.40;3.60;;;;;16.60;102015.00;;;;5030616;28;20334;-73
2022/08/07 07:30:55;;;;;;;5.53;3.87;;;;;16.70;102011.00;;;;5024274;28;20217;-72
2022/08/07 07:33:44;;;;;;;5.23;3.63;;;;;16.90;102011.00;;;;5028887;28;20598;-72
2022/08/07 07:36:44;;;;;;;3.77;3.37;;;;;16.90;101995.00;;;;5029460;28;20209;-71
2022/08/07 07:39:36;;;;;;;4.33;2.90;;;;;17.00;101994.00;;;;5027780;28;20571;-72
2022/08/07 07:42:41;;;;;;;6.03;2.97;;;;;17.30;101989.00;;;;5029680;28;21522;-72
2022/08/07 07:45:30;;;;;;;8.10;3.10;;;;;17.40;101993.00;;;;5027761;28;20229;-72
2022/08/07 07:48:39;;;;;;;4.17;2.60;;;;;17.40;101985.00;;;;5028938;28;20220;-71
2022/08/07 07:51:32;;;;;;;3.10;2.80;;;;;17.60;101983.00;;;;5028702;28;20210;-71
2022/08/07 07:54:39;;;;;;;2.70;2.30;;;;;17.70;101986.00;;;;5029035;28;20267;-72
2022/08/07 07:57:37;;;;;;;4.97;2.57;;;;;17.90;101994.00;;;;5029794;28;20241;-74
2022/08/07 08:00:40;;;;;;;2.30;2.10;;;;;17.90;101983.00;;;;5029941;28;20704;-74
2022/08/07 08:03:31;;;;;;;2.80;2.10;;;;;18.10;101987.00;;;;5029830;28;20224;-71
2022/08/07 08:06:40;;;;;;;3.00;2.40;;;;;18.40;101990.00;;;;5029114;28;20209;-71
2022/08/07 08:09:38;;;;;;;5.67;2.60;;;;;18.40;101987.00;;;;5027024;28;20222;-70
2022/08/07 08:12:46;;;;;;;2.57;1.93;;;;;18.50;101993.00;;;;5029395;28;20217;-70
2022/08/07 08:15:47;;;;;;;4.77;2.07;;;;;18.60;101981.00;;;;5027385;28;20360;-71
2022/08/07 08:18:47;;;;;;;3.03;2.00;;;;;19.00;101983.00;;;;5025917;28;20205;-70
2022/08/07 08:28:20;;;;;;;2.17;1.90;;;;;19.40;101984.00;;;;5026575;28;20205;-70
2022/08/07 08:31:28;;;;;;;2.40;1.67;;;;;19.50;101976.00;;;;5027310;28;20890;-71
2022/08/07 08:34:36;;;;;;;1.77;1.67;;;;;19.80;101975.00;;;;5023622;28;20910;-72
2022/08/07 08:37:26;;;;;;;1.70;1.50;;;;;20.00;101975.00;;;;5025532;28;20218;-70
2022/08/07 08:40:37;;;;;;;9.13;4.50;;;;;20.20;101978.00;;;;5024398;28;20213;-70
2022/08/07 08:43:31;;;;;;;2.27;1.80;;;;;20.20;101966.00;;;;5031064;28;20220;-71
2022/08/07 08:46:46;;;;;;;1.80;1.70;;;;;20.60;101961.00;;;;5026487;28;20213;-70
2022/08/07 08:49:38;;;;;;;2.30;1.50;;;;;20.60;101967.00;;;;5026872;28;20288;-72
2022/08/07 08:52:51;;;;;;;1.43;1.00;;;;;21.00;101975.00;;;;5025551;28;20210;-71
2022/08/07 08:55:46;;;;;;;1.90;1.20;;;;;21.00;101974.00;;;;5026730;28;20233;-71
2022/08/07 08:58:51;;;;;;;1.40;1.27;;;;;21.20;101965.00;;;;5027148;28;20831;-72
2022/08/07 09:01:46;;;;;;;3.80;1.20;;;;;21.50;101971.00;;;;5027166;28;20218;-71
2022/08/07 09:04:44;;;;;;;3.53;1.20;;;;;21.70;101984.00;;;;5025290;28;20243;-70
2022/08/07 09:07:38;;;;;;;1.30;1.20;;;;;21.70;101976.00;;;;5024950;28;20244;-73
2022/08/07 09:10:46;;;;;;;1.47;1.03;;;;;21.70;101976.00;;;;5025451;28;20214;-71
2022/08/07 09:13:40;;;;;;;0.90;0.90;;;;;22.00;101970.00;;;;5025376;28;20257;-71
2022/08/07 09:16:36;;;;;;;2.37;1.20;;;;;22.10;101981.00;;;;5026008;28;20353;-74
2022/08/07 09:19:35;;;;;;;3.87;1.70;;;;;22.10;101977.00;;;;5024690;28;20898;-73
2022/08/07 09:22:57;;;;;;;2.50;1.10;;;;;22.20;101977.00;;;;5026314;28;20210;-71
2022/08/07 09:26:16;;;;;;;1.13;1.00;;;;;22.30;101975.00;;;;5026200;28;20738;-72
2022/08/07 09:29:17;;;;;;;1.00;1.00;;;;;22.30;101978.00;;;;5023514;28;20323;-73
2022/08/07 09:32:36;;;;;;;1.40;1.03;;;;;22.80;101985.00;;;;5024331;28;20339;-73
2022/08/07 09:35:40;;;;;;;1.40;1.23;;;;;22.90;101977.00;;;;5024245;28;20731;-73
2022/08/07 09:38:50;;;;;;;1.90;1.10;;;;;22.70;101979.00;;;;5023411;28;20209;-74
2022/08/07 09:41:52;;;;;;;2.33;1.20;;;;;22.80;101972.00;;;;5025542;28;20564;-75
2022/08/07 09:44:59;;;;;;;1.23;1.00;;;;;22.90;101969.00;;;;5023442;28;20330;-71
2022/08/07 09:48:33;;;;;;;2.17;1.00;;;;;23.00;101964.00;;;;5024075;28;20274;-72
2022/08/07 09:51:55;;;;;;;3.63;1.30;;;;;23.20;101958.00;;;;5023612;28;21067;-72
2022/08/07 09:55:09;;;;;;;1.20;1.10;;;;;23.30;101956.00;;;;5020818;28;20310;-74
2022/08/07 09:58:47;;;;;;;1.40;1.30;;;;;23.30;101953.00;;;;5020927;28;20216;-74
2022/08/07 10:02:04;;;;;;;1.37;1.10;;;;;23.60;101947.00;;;;5022414;28;20221;-74
2022/08/07 10:05:17;;;;;;;1.33;1.10;;;;;23.50;101944.00;;;;5022382;28;20240;-73
2022/08/07 10:08:42;;;;;;;2.00;1.20;;;;;23.60;101942.00;;;;5022948;28;20244;-73
2022/08/07 10:11:44;;;;;;;2.37;1.03;;;;;23.60;101942.00;;;;5022141;28;20999;-74
2022/08/07 10:15:07;;;;;;;1.47;1.10;;;;;24.20;101940.00;;;;5015323;28;20260;-73
2022/08/07 10:18:17;;;;;;;1.13;1.03;;;;;24.40;101932.00;;;;5023847;28;20681;-74
2022/08/07 10:21:21;;;;;;;1.63;0.97;;;;;24.50;101934.00;;;;5022620;28;20578;-73
2022/08/07 10:24:49;;;;;;;2.60;1.10;;;;;24.80;101931.00;;;;5022680;28;20626;-71
2022/08/07 10:27:51;;;;;;;1.37;1.27;;;;;25.00;101937.00;;;;5030268;28;20211;-74
2022/08/07 10:30:58;;;;;;;1.20;1.03;;;;;24.90;101930.00;;;;5022063;28;20304;-78
2022/08/07 10:33:59;;;;;;;4.27;3.33;;;;;24.90;101930.00;;;;5021890;28;20225;-74
2022/08/07 10:37:13;;;;;;;2.97;1.10;;;;;25.00;101928.00;;;;5022287;28;20205;-76
2022/08/07 10:40:06;;;;;;;6.47;1.20;;;;;24.90;101935.00;;;;5022636;28;20327;-73
2022/08/07 10:43:00;;;;;;;3.50;1.20;;;;;25.10;101926.00;;;;5023249;28;20214;-73
2022/08/07 10:45:49;;;;;;;1.90;1.10;;;;;24.90;101928.00;;;;5023219;28;20255;-74
2022/08/07 10:48:55;;;;;;;3.60;1.17;;;;;24.90;101917.00;;;;5022839;28;20820;-75
2022/08/07 10:51:53;;;;;;;1.47;1.10;;;;;25.00;101921.00;;;;5022629;28;20801;-73
2022/08/07 10:55:08;;;;;;;2.80;1.13;;;;;25.40;101917.00;;;;5023645;28;20241;-75
2022/08/07 10:58:31;;;;;;;1.30;1.10;;;;;25.50;101920.00;;;;5019799;28;20221;-75
2022/08/07 11:01:36;;;;;;;1.60;1.10;;;;;25.30;101911.00;;;;5029158;28;20209;-74
2022/08/07 11:04:59;;;;;;;1.17;1.10;;;;;25.70;101910.00;;;;5028332;28;20237;-73
2022/08/07 11:07:59;;;;;;;1.47;1.10;;;;;25.80;101901.00;;;;5026900;28;20264;-73
2022/08/07 11:10:55;;;;;;;1.83;1.03;;;;;25.70;101897.00;;;;5028671;28;20212;-73
2022/08/07 11:13:49;;;;;;;3.30;1.10;;;;;26.10;101898.00;;;;5027675;28;20213;-74
2022/08/07 11:17:01;;;;;;;1.73;1.10;;;;;26.50;101898.00;;;;5025404;28;20960;-73
2022/08/07 11:19:59;;;;;;;1.20;1.10;;;;;26.40;101889.00;;;;5030058;28;20217;-74
2022/08/07 11:22:53;;;;;;;1.53;1.20;;;;;26.20;101894.00;;;;5028942;28;20217;-74
2022/08/07 11:25:44;;;;;;;1.20;1.10;;;;;25.90;101877.00;;;;5027168;28;20308;-73
2022/08/07 11:28:41;;;;;;;2.77;1.20;;;;;25.90;101879.00;;;;5029342;28;20221;-72
2022/08/07 11:31:49;;;;;;;1.07;1.00;;;;;26.30;101883.00;;;;5029506;28;20700;-72
2022/08/07 11:34:44;;;;;;;2.27;1.20;;;;;25.90;101875.00;;;;5029173;28;20241;-73
2022/08/07 11:37:55;;;;;;;2.27;1.27;;;;;25.80;101879.00;;;;5029690;28;20737;-74
2022/08/07 11:40:58;;;;;;;1.40;1.10;;;;;25.90;101877.00;;;;5026973;28;20206;-74
2022/08/07 11:43:57;;;;;;;2.17;1.20;;;;;25.90;101865.00;;;;5027980;28;20333;-72
2022/08/07 11:47:07;;;;;;;1.90;1.30;;;;;26.30;101871.00;;;;5028617;28;20209;-73
2022/08/07 11:50:06;;;;;;;1.73;1.27;;;;;26.40;101874.00;;;;5027283;28;20206;-72
2022/08/07 11:53:26;;;;;;;2.23;1.20;;;;;26.70;101874.00;;;;5027944;28;20229;-74
2022/08/07 11:56:33;;;;;;;1.57;1.20;;;;;26.60;101872.00;;;;5028655;28;20229;-74
2022/08/07 11:59:45;;;;;;;1.57;1.17;;;;;26.80;101874.00;;;;5025664;28;20214;-74
2022/08/07 12:03:25;;;;;;;1.03;1.00;;;;;26.80;101862.00;;;;5028639;28;20217;-73
2022/08/07 12:06:48;;;;;;;1.30;1.07;;;;;27.10;101871.00;;;;5027973;28;20234;-76
2022/08/07 12:09:50;;;;;;;1.20;1.10;;;;;26.70;101863.00;;;;5027701;28;20249;-74
2022/08/07 12:12:42;;;;;;;2.05;1.15;;;;;26.70;101861.00;;;;5026258;28;20213;-73
2022/08/07 12:15:33;;;;;;;2.33;1.40;;;;;26.80;101858.00;;;;5027883;28;20280;-73
2022/08/07 12:18:46;;;;;;;2.17;1.35;;;;;27.00;101861.00;;;;5026779;28;20201;-73
2022/08/07 12:21:41;;;;;;;1.65;1.00;;;;;26.90;101871.00;;;;5025790;28;20209;-74
2022/08/07 12:28:31;;;;;;;3.63;1.00;;;;;27.10;101851.00;;;;5025007;28;20761;-73
2022/08/07 12:31:26;;;;;;;1.30;1.20;;;;;27.40;101853.00;;;;5022755;28;20221;-74
2022/08/07 12:34:36;;;;;;;2.05;1.10;;;;;27.40;101852.00;;;;5027504;28;20260;-74
2022/08/07 12:37:25;;;;;;;1.13;1.05;;;;;27.20;101839.00;;;;5027820;28;20299;-74
2022/08/07 12:40:36;;;;;;;1.90;1.10;;;;;27.70;101849.00;;;;5025205;28;20254;-76
2022/08/07 12:43:35;;;;;;;2.25;1.00;;;;;27.80;101850.00;;;;5024961;28;20221;-76
2022/08/07 12:46:59;;;;;;;1.33;1.23;;;;;27.40;101838.00;;;;5025687;28;20291;-74
2022/08/07 12:49:53;;;;;;;1.20;1.10;;;;;27.60;101835.00;;;;5026021;28;20616;-74
2022/08/07 12:52:54;;;;;;;4.53;1.20;;;;;28.10;101837.00;;;;5027502;28;20252;-75
2022/08/07 12:55:50;;;;;;;1.50;1.25;;;;;28.20;101837.00;;;;5027492;28;20241;-74
2022/08/07 12:58:50;;;;;;;3.25;1.10;;;;;28.70;101841.00;;;;5026248;28;20217;-74
2022/08/07 13:01:55;;;;;;;1.48;1.00;;;;;28.70;101840.00;;;;5027798;28;20214;-74
2022/08/07 13:04:56;;;;;;;1.23;1.13;;;;;28.50;101840.00;;;;5023202;28;20233;-74
2022/08/07 13:08:27;;;;;;;1.17;1.08;;;;;28.50;101828.00;;;;5022049;28;20694;-73
2022/08/07 13:11:39;;;;;;;1.10;1.00;;;;;28.20;101832.00;;;;5025016;28;20221;-73
2022/08/07 13:14:53;;;;;;;1.20;1.10;;;;;28.50;101836.00;;;;5024993;28;20230;-75
2022/08/07 13:17:50;;;;;;;1.30;1.00;;;;;27.30;101830.00;;;;5025216;28;20214;-76
2022/08/07 13:20:49;;;;;;;1.05;1.00;;;;;27.60;101828.00;;;;5025813;28;20233;-73
2022/08/07 13:23:49;;;;;;;2.13;1.15;;;;;28.00;101831.00;;;;5018676;28;20213;-73
2022/08/07 13:26:57;;;;;;;0.95;0.95;;;;;28.10;101823.00;;;;5025748;28;20768;-75
2022/08/07 13:29:52;;;;;;;1.38;1.10;;;;;28.10;101820.00;;;;5027156;28;20689;-74
2022/08/07 13:32:44;;;;;;;1.02;1.00;;;;;28.50;101818.00;;;;5024234;28;20205;-73
2022/08/07 13:35:40;;;;;;;1.42;1.00;;;;;28.90;101813.00;;;;5026057;28;20723;-72
2022/08/07 13:38:55;;;;;;;1.10;1.10;;;;;28.80;101817.00;;;;5026326;28;20221;-73
2022/08/07 13:41:45;;;;;;;1.25;1.00;;;;;28.70;101811.00;;;;5027629;28;20374;-75
2022/08/07 13:44:38;;;;;;;1.98;1.02;;;;;29.10;101808.00;;;;5026907;28;20215;-74
2022/08/07 13:47:28;;;;;;;1.40;1.05;;;;;28.80;101803.00;;;;5024985;28;20323;-74
2022/08/07 13:50:39;;;;;;;1.33;0.98;;;;;27.80;101800.00;;;;5023333;28;20299;-75
2022/08/07 13:53:52;;;;;;;0.95;0.95;;;;;27.20;101810.00;;;;5024125;28;20221;-74
2022/08/07 13:56:48;;;;;;;1.20;1.10;;;;;26.50;101805.00;;;;5024787;28;20233;-73
2022/08/07 13:59:47;;;;;;;4.00;1.15;;;;;26.70;101794.00;;;;5024928;28;20344;-73
2022/08/07 14:02:41;;;;;;;1.10;1.00;;;;;27.30;101793.00;;;;5025135;28;20221;-73
2022/08/07 14:05:40;;;;;;;1.80;1.10;;;;;27.90;101797.00;;;;5024655;28;20229;-74
2022/08/07 14:08:28;;;;;;;1.10;1.00;;;;;28.10;101789.00;;;;5021528;28;20340;-74
2022/08/07 14:11:16;;;;;;;1.02;1.00;;;;;28.80;101794.00;;;;5019880;28;20214;-74
2022/08/07 14:14:07;;;;;;;2.13;1.17;;;;;29.00;101782.00;;;;5025693;28;20205;-75
2022/08/07 14:16:58;;;;;;;1.27;0.95;;;;;29.10;101786.00;;;;5024891;28;20229;-72
2022/08/07 14:20:04;;;;;;;1.77;1.10;;;;;29.30;101789.00;;;;5025712;28;20213;-75
2022/08/07 14:23:15;;;;;;;1.55;1.10;;;;;28.80;101793.00;;;;5023817;28;20579;-75
2022/08/07 14:26:26;;;;;;;1.48;1.20;;;;;29.00;101784.00;;;;5023292;28;20237;-73
2022/08/07 14:29:19;;;;;;;2.35;1.00;;;;;28.80;101788.00;;;;5017673;28;20260;-76
2022/08/07 14:32:28;;;;;;;1.17;1.08;;;;;29.10;101781.00;;;;5020654;28;20780;-75
2022/08/07 14:35:20;;;;;;;1.33;1.02;;;;;29.20;101785.00;;;;5027658;28;20225;-76
2022/08/07 14:38:30;;;;;;;1.77;0.98;;;;;30.00;101775.00;;;;5029714;28;20352;-76
2022/08/07 14:41:26;;;;;;;1.38;1.02;;;;;30.30;101773.00;;;;5030470;28;20256;-74
2022/08/07 14:44:33;;;;;;;1.10;1.00;;;;;30.40;101773.00;;;;5023981;28;20214;-74
2022/08/07 14:47:22;;;;;;;1.05;0.90;;;;;30.60;101772.00;;;;5024114;28;20318;-75
2022/08/07 14:50:17;;;;;;;1.05;0.95;;;;;30.60;101765.00;;;;5028807;28;20221;-74
2022/08/07 14:53:07;;;;;;;1.33;0.82;;;;;31.20;101768.00;;;;5030140;28;20221;-74
2022/08/07 14:55:55;;;;;;;3.17;1.10;;;;;31.20;101775.00;;;;5029870;28;20590;-75